Time;durP1;ratioP1;P1;durP2;ratioP2;P2;SDS_P1;SDS_P2;PMS_P1;PMS_P2;Temp;Humidity;BMP_temperature;BMP_pressure;BME280_temperature;BME280_humidity;BME280_pressure;Samples;Min_cycle;Max_cycle;Signal;HPM_P1;HPM_P2
2024/04/21 00:00:14;;;;;;;6.38;1.77;;;;;;;2.53;100.00;101675.63;5418766;26;20010;-74
2024/04/21 00:02:40;;;;;;;11.05;1.83;;;;;;;2.46;100.00;101679.75;5431253;26;20499;-74
2024/04/21 00:05:05;;;;;;;;;;;;;;;2.42;100.00;101673.81;5439203;26;20007;-74
2024/04/21 00:07:31;;;;;;;6.53;1.40;;;;;;;2.34;100.00;101675.41;5429687;26;19925;-75
2024/04/21 00:09:56;;;;;;;;;;;;;;;2.18;100.00;101673.97;5444661;26;20014;-75
2024/04/21 00:12:24;;;;;;;7.93;1.50;;;;;;;2.03;100.00;101677.84;5441408;26;19943;-74
2024/04/21 00:14:50;;;;;;;8.23;1.80;;;;;;;1.89;100.00;101671.81;5443602;26;20003;-74
2024/04/21 00:17:15;;;;;;;;;;;;;;;1.79;100.00;101668.16;5442946;26;20048;-74
2024/04/21 00:19:41;;;;;;;7.30;1.50;;;;;;;1.64;100.00;101668.38;5442001;26;19932;-74
2024/04/21 00:22:06;;;;;;;;;;;;;;;1.57;100.00;101661.88;5444721;26;20003;-73
2024/04/21 00:24:31;;;;;;;3.37;1.30;;;;;;;1.56;100.00;101652.22;5443671;26;19943;-74
2024/04/21 00:26:56;;;;;;;;;;;;;;;1.50;100.00;101650.88;5440032;26;20002;-74
2024/04/21 00:29:22;;;;;;;7.67;1.43;;;;;;;1.46;100.00;101644.13;5428590;26;19970;-74
2024/04/21 00:31:47;;;;;;;6.57;1.45;;;;;;;1.45;100.00;101644.22;5436385;26;20010;-74
2024/04/21 00:34:13;;;;;;;4.82;1.42;;;;;;;1.41;100.00;101637.47;5441600;26;20022;-75
2024/04/21 00:36:39;;;;;;;9.73;1.50;;;;;;;1.37;100.00;101636.84;5441080;26;20011;-76
2024/04/21 00:39:05;;;;;;;7.28;1.60;;;;;;;1.33;100.00;101643.34;5401048;26;20089;-73
2024/04/21 00:41:30;;;;;;;7.18;1.77;;;;;;;1.28;100.00;101645.53;5429120;26;20404;-73
2024/04/21 00:43:56;;;;;;;;;;;;;;;1.25;100.00;101654.53;5408821;26;20011;-75
2024/04/21 00:46:21;;;;;;;7.18;1.98;;;;;;;1.19;100.00;101647.06;5425835;26;19924;-74
2024/04/21 00:48:47;;;;;;;6.95;1.92;;;;;;;1.10;100.00;101645.94;5399787;26;20336;-74
2024/04/21 00:51:12;;;;;;;6.20;1.30;;;;;;;1.06;100.00;101642.66;5401473;26;20025;-74
2024/04/21 00:53:40;;;;;;;8.45;1.58;;;;;;;0.95;100.00;101642.63;5381530;26;20326;-74
2024/04/21 00:56:06;;;;;;;7.60;1.52;;;;;;;0.87;100.00;101629.13;5408410;26;20011;-74
2024/04/21 00:58:31;;;;;;;7.05;1.55;;;;;;;0.78;100.00;101625.34;5411246;26;20031;-74
2024/04/21 01:00:57;;;;;;;;;;;;;;;0.68;100.00;101614.56;5382447;26;20015;-75
2024/04/21 01:03:22;;;;;;;5.23;2.00;;;;;;;0.61;100.00;101613.31;5408947;26;19932;-75
2024/04/21 01:05:47;;;;;;;8.33;2.57;;;;;;;0.55;100.00;101617.28;5443033;26;20322;-75
2024/04/21 01:08:13;;;;;;;6.15;2.03;;;;;;;0.52;100.00;101606.06;5443058;26;20224;-75
2024/04/21 01:10:38;;;;;;;9.47;1.70;;;;;;;0.43;100.00;101613.72;5435817;26;20343;-75
2024/04/21 01:13:13;;;;;;;3.65;1.20;;;;;;;0.32;100.00;101607.50;5437367;26;20275;-75
2024/04/21 01:15:38;;;;;;;4.18;1.38;;;;;;;0.25;100.00;101604.44;5439329;26;20445;-75
2024/04/21 01:18:12;;;;;;;5.90;1.88;;;;;;;0.25;100.00;101599.16;5441439;26;20026;-75
2024/04/21 01:20:37;;;;;;;4.15;1.60;;;;;;;0.09;100.00;101607.38;5419946;26;20013;-74
2024/04/21 01:23:03;;;;;;;7.72;1.70;;;;;;;0.05;100.00;101608.53;5441294;26;20050;-76
2024/04/21 01:25:28;;;;;;;5.68;1.85;;;;;;;0.02;100.00;101593.69;5441343;26;20055;-74
2024/04/21 01:27:55;;;;;;;4.30;1.57;;;;;;;0.01;100.00;101602.59;5442405;26;20374;-74
2024/04/21 01:30:20;;;;;;;4.68;1.50;;;;;;;-0.09;100.00;101596.28;5435900;26;20053;-74
2024/04/21 01:32:46;;;;;;;7.40;1.88;;;;;;;-0.07;100.00;101595.19;5435658;26;19999;-74
2024/04/21 01:35:14;;;;;;;6.30;1.40;;;;;;;-0.04;100.00;101589.69;5443335;26;20018;-73
2024/04/21 01:37:39;;;;;;;4.78;2.28;;;;;;;0.10;100.00;101586.06;5440687;26;19999;-74
2024/04/21 01:40:05;;;;;;;7.68;2.55;;;;;;;0.21;100.00;101582.66;5433392;26;20003;-75
2024/04/21 01:42:31;;;;;;;;;;;;;;;0.28;100.00;101583.88;5441149;26;20339;-75
2024/04/21 01:44:56;;;;;;;6.43;2.60;;;;;;;0.35;100.00;101583.44;5441168;26;20064;-75
2024/04/21 01:47:21;;;;;;;4.70;2.27;;;;;;;0.48;100.00;101565.69;5437273;26;20228;-75
2024/04/21 01:49:48;;;;;;;8.90;1.73;;;;;;;0.57;100.00;101567.66;5414089;26;20704;-75
2024/04/21 01:52:13;;;;;;;5.85;1.58;;;;;;;0.61;100.00;101568.28;5438802;26;20306;-74
2024/04/21 01:54:39;;;;;;;4.53;1.33;;;;;;;0.58;100.00;101563.19;5441334;26;20003;-75
2024/04/21 01:57:04;;;;;;;6.43;1.50;;;;;;;0.59;100.00;101564.91;5430054;26;20030;-74
2024/04/21 01:59:29;;;;;;;7.88;1.65;;;;;;;0.57;100.00;101572.97;5428461;26;20548;-74
2024/04/21 02:01:55;;;;;;;4.63;1.40;;;;;;;0.61;100.00;101555.03;5432609;26;20419;-75
2024/04/21 02:04:20;;;;;;;6.20;1.30;;;;;;;0.72;100.00;101547.13;5431009;26;20450;-75
2024/04/21 02:06:46;;;;;;;8.77;1.63;;;;;;;0.71;100.00;101557.84;5429723;26;20009;-75
2024/04/21 02:09:11;;;;;;;7.17;1.33;;;;;;;0.80;100.00;101541.22;5441118;26;20561;-75
2024/04/21 02:11:36;;;;;;;5.57;1.33;;;;;;;0.83;100.00;101537.53;5435098;26;20264;-74
2024/04/21 02:14:02;;;;;;;6.60;1.47;;;;;;;0.69;100.00;101539.41;5442009;26;20549;-74
2024/04/21 02:16:27;;;;;;;6.50;1.50;;;;;;;0.73;100.00;101530.25;5423975;26;20290;-73
2024/04/21 02:18:52;;;;;;;4.67;1.37;;;;;;;0.74;100.00;101531.13;5443231;26;20676;-75
2024/04/21 02:21:18;;;;;;;6.23;1.70;;;;;;;0.83;100.00;101530.41;5445780;26;20255;-74
2024/04/21 02:23:49;;;;;;;7.32;1.40;;;;;;;0.81;100.00;101524.38;5442725;26;20003;-75
2024/04/21 02:26:15;;;;;;;4.63;1.40;;;;;;;0.80;100.00;101529.81;5443380;26;19995;-74
2024/04/21 02:28:41;;;;;;;4.00;1.50;;;;;;;0.79;100.00;101522.81;5445673;26;20322;-74
2024/04/21 02:31:07;;;;;;;7.30;1.55;;;;;;;0.77;100.00;101524.72;5443056;26;20003;-74
2024/04/21 02:33:32;;;;;;;6.50;1.42;;;;;;;0.73;100.00;101524.94;5443960;26;20019;-73
2024/04/21 02:35:57;;;;;;;9.82;1.60;;;;;;;0.75;100.00;101523.03;5445135;26;19991;-74
2024/04/21 02:38:23;;;;;;;6.38;1.67;;;;;;;0.75;100.00;101517.75;5404031;26;20007;-75
2024/04/21 02:40:49;;;;;;;6.88;1.50;;;;;;;0.74;100.00;101516.03;5442656;26;20017;-75
2024/04/21 02:43:14;;;;;;;5.15;1.30;;;;;;;0.79;100.00;101515.72;5445967;26;20533;-75
2024/04/21 02:45:40;;;;;;;4.60;1.38;;;;;;;0.78;100.00;101511.38;5442825;26;20009;-74
2024/04/21 02:48:06;;;;;;;5.95;1.40;;;;;;;0.80;100.00;101503.28;5443938;26;20003;-74
2024/04/21 02:50:31;;;;;;;5.57;1.58;;;;;;;0.98;100.00;101511.63;5433010;26;19994;-73
2024/04/21 02:52:56;;;;;;;5.45;1.50;;;;;;;0.94;100.00;101519.00;5444963;26;20006;-75
2024/04/21 02:55:22;;;;;;;4.70;1.30;;;;;;;1.04;100.00;101520.00;5440653;26;20099;-75
2024/04/21 02:57:50;;;;;;;6.00;1.30;;;;;;;1.01;100.00;101517.56;5445002;26;19999;-73
2024/04/21 03:00:16;;;;;;;4.40;1.38;;;;;;;1.11;100.00;101514.19;5442429;26;19995;-75
2024/04/21 03:02:41;;;;;;;3.65;1.27;;;;;;;1.09;100.00;101516.97;5444145;26;19998;-75
2024/04/21 03:05:14;;;;;;;6.80;1.70;;;;;;;1.16;100.00;101510.22;5443676;26;20021;-74
2024/04/21 03:07:39;;;;;;;6.32;1.40;;;;;;;1.17;100.00;101514.56;5442105;26;19999;-74
2024/04/21 03:10:05;;;;;;;5.82;1.23;;;;;;;1.14;100.00;101525.44;5442732;26;20651;-75
2024/04/21 03:12:30;;;;;;;6.60;1.30;;;;;;;1.13;100.00;101520.22;5443656;26;20007;-74
2024/04/21 03:14:56;;;;;;;4.30;1.52;;;;;;;1.10;100.00;101521.31;5432676;26;20458;-75
2024/04/21 03:17:21;;;;;;;4.38;1.25;;;;;;;1.13;100.00;101522.88;5441466;26;20002;-75
2024/04/21 03:19:47;;;;;;;6.53;1.77;;;;;;;1.10;100.00;101516.00;5442866;26;20330;-75
2024/04/21 03:22:13;;;;;;;6.55;1.30;;;;;;;1.16;100.00;101525.31;5442948;26;20101;-75
2024/04/21 03:24:38;;;;;;;4.00;1.30;;;;;;;1.11;100.00;101536.28;5442674;26;20423;-74
2024/04/21 03:27:04;;;;;;;9.38;1.88;;;;;;;1.08;100.00;101533.84;5441713;26;20032;-74
2024/04/21 03:29:29;;;;;;;7.47;1.67;;;;;;;0.94;100.00;101532.25;5411747;26;20430;-74
2024/04/21 03:31:54;;;;;;;9.57;1.73;;;;;;;0.95;100.00;101538.41;5444498;26;20013;-74
2024/04/21 03:34:20;;;;;;;8.63;1.53;;;;;;;0.94;100.00;101537.53;5441126;26;20228;-74
2024/04/21 03:36:46;;;;;;;;;;;;;;;0.88;100.00;101538.03;5387465;26;20027;-74
2024/04/21 03:39:12;;;;;;;8.75;1.67;;;;;;;0.77;100.00;101532.69;5430088;26;19932;-74
2024/04/21 03:41:37;;;;;;;7.35;1.55;;;;;;;0.72;100.00;101544.47;5431894;26;20011;-73
2024/04/21 03:44:06;;;;;;;4.57;1.77;;;;;;;0.63;100.00;101539.88;5440623;26;20003;-74
2024/04/21 03:46:31;;;;;;;5.88;1.20;;;;;;;0.59;100.00;101538.41;5442523;26;20228;-74
2024/04/21 03:48:56;;;;;;;9.43;2.00;;;;;;;0.57;100.00;101537.66;5442215;26;20013;-73
2024/04/21 03:51:22;;;;;;;9.35;1.55;;;;;;;0.57;100.00;101535.88;5444098;26;20011;-75
2024/04/21 03:53:50;;;;;;;6.10;1.52;;;;;;;0.59;100.00;101533.09;5442507;26;20447;-73
2024/04/21 03:56:15;;;;;;;7.55;1.73;;;;;;;0.58;100.00;101531.41;5434438;26;20010;-74
2024/04/21 03:58:41;;;;;;;8.48;1.65;;;;;;;0.57;100.00;101540.31;5442468;26;20011;-74
2024/04/21 04:01:06;;;;;;;6.28;2.13;;;;;;;0.59;100.00;101544.56;5433113;26;20014;-74
2024/04/21 04:03:32;;;;;;;6.20;1.33;;;;;;;0.60;100.00;101545.38;5441470;26;20457;-74
2024/04/21 04:05:57;;;;;;;9.00;2.10;;;;;;;0.56;100.00;101543.91;5443641;26;19999;-74
2024/04/21 04:08:23;;;;;;;9.45;1.98;;;;;;;0.57;100.00;101543.81;5444099;26;20459;-75
2024/04/21 04:10:48;;;;;;;8.57;1.77;;;;;;;0.61;100.00;101547.09;5436310;26;20007;-75
2024/04/21 04:13:13;;;;;;;3.67;1.38;;;;;;;0.64;100.00;101552.16;5439508;26;19995;-74
2024/04/21 04:15:39;;;;;;;8.73;1.77;;;;;;;0.61;100.00;101557.69;5447272;26;20002;-74
2024/04/21 04:18:05;;;;;;;6.22;1.85;;;;;;;0.59;100.00;101554.28;5456141;26;20236;-75
2024/04/21 04:20:30;;;;;;;;;;;;;;;0.58;100.00;101552.59;5446498;26;20006;-74
2024/04/21 04:22:55;;;;;;;6.37;1.57;;;;;;;0.54;100.00;101551.13;5443389;26;19932;-74
2024/04/21 04:25:21;;;;;;;6.07;1.35;;;;;;;0.55;100.00;101547.53;5431229;26;20002;-74
2024/04/21 04:27:46;;;;;;;5.15;1.30;;;;;;;0.56;100.00;101544.78;5435068;26;20003;-74
2024/04/21 04:30:11;;;;;;;5.00;1.50;;;;;;;0.66;100.00;101547.59;5400861;26;20030;-74
2024/04/21 04:32:37;;;;;;;7.90;1.60;;;;;;;0.68;100.00;101558.94;5427048;26;20235;-73
2024/04/21 04:35:02;;;;;;;7.07;1.80;;;;;;;0.65;100.00;101564.44;5441918;26;20646;-76
2024/04/21 04:37:27;;;;;;;;;;;;;;;0.58;100.00;101573.81;5439494;26;19995;-76
2024/04/21 04:39:53;;;;;;;7.70;1.37;;;;;;;0.62;100.00;101564.66;5441508;26;19931;-73
2024/04/21 04:42:18;;;;;;;13.00;1.70;;;;;;;0.56;100.00;101579.22;5442325;26;19999;-73
2024/04/21 04:44:44;;;;;;;6.27;1.90;;;;;;;0.61;100.00;101586.81;5441741;26;20067;-75
2024/04/21 04:47:09;;;;;;;8.30;1.30;;;;;;;0.52;100.00;101583.06;5441017;26;20279;-75
2024/04/21 04:49:34;;;;;;;8.33;1.60;;;;;;;0.55;100.00;101581.97;5442734;26;20793;-75
2024/04/21 04:52:03;;;;;;;7.90;1.60;;;;;;;0.62;100.00;101585.88;5441033;26;20021;-74
2024/04/21 04:54:28;;;;;;;8.20;1.48;;;;;;;0.63;100.00;101587.56;5434527;26;20011;-74
2024/04/21 04:56:54;;;;;;;4.28;1.40;;;;;;;0.61;100.00;101594.78;5441917;26;19995;-73
2024/04/21 04:59:19;;;;;;;6.63;2.22;;;;;;;0.66;100.00;101591.78;5442711;26;20035;-74
2024/04/21 05:01:44;;;;;;;4.10;1.93;;;;;;;0.77;100.00;101594.50;5428698;26;20019;-75
2024/04/21 05:04:10;;;;;;;46.25;2.97;;;;;;;0.94;100.00;101598.53;5425878;26;20216;-78
2024/04/21 05:06:37;;;;;;;5.50;1.90;;;;;;;1.00;100.00;101603.38;5442976;26;20006;-74
2024/04/21 05:09:03;;;;;;;6.75;1.60;;;;;;;0.97;100.00;101611.56;5415793;26;20033;-75
2024/04/21 05:11:28;;;;;;;7.53;1.75;;;;;;;0.84;100.00;101619.56;5405076;26;20328;-75
2024/04/21 05:13:55;;;;;;;4.00;1.45;;;;;;;0.80;100.00;101634.00;5441988;26;20009;-75
2024/04/21 05:16:23;;;;;;;6.63;1.60;;;;;;;0.88;100.00;101638.75;5438860;26;20002;-74
2024/04/21 05:18:48;;;;;;;4.45;1.67;;;;;;;0.92;100.00;101642.84;5419277;26;20389;-75
2024/04/21 05:21:14;;;;;;;3.92;1.70;;;;;;;1.04;100.00;101647.25;5427051;26;20010;-74
2024/04/21 05:23:39;;;;;;;5.80;1.85;;;;;;;1.14;100.00;101641.25;5382471;26;20012;-76
2024/04/21 05:26:05;;;;;;;7.53;2.00;;;;;;;1.15;100.00;101648.25;5394169;26;19999;-75
2024/04/21 05:28:30;;;;;;;6.70;1.77;;;;;;;1.05;100.00;101651.59;5441245;26;20249;-75
2024/04/21 05:30:55;;;;;;;;;;;;;;;1.25;100.00;101659.84;5442352;26;20458;-74
2024/04/21 05:33:21;;;;;;;2.90;1.33;;;;;;;1.42;100.00;101668.31;5409118;26;19940;-74
2024/04/21 05:35:46;;;;;;;6.95;1.60;;;;;;;1.28;100.00;101666.75;5419778;26;20027;-74
2024/04/21 05:38:12;;;;;;;5.63;1.35;;;;;;;1.36;100.00;101665.22;5414434;26;19995;-74
2024/04/21 05:40:37;;;;;;;9.45;1.70;;;;;;;1.45;100.00;101665.44;5432090;26;20010;-74
2024/04/21 05:43:03;;;;;;;6.68;1.35;;;;;;;1.75;100.00;101669.38;5419031;26;20019;-74
2024/04/21 05:45:28;;;;;;;4.60;1.45;;;;;;;1.96;100.00;101680.13;5397021;26;19992;-75
2024/04/21 05:47:54;;;;;;;;;;;;;;;2.18;100.00;101670.50;5373419;26;20004;-73
2024/04/21 05:50:20;;;;;;;4.57;1.80;;;;;;;2.27;100.00;101681.22;5399338;26;19932;-74
2024/04/21 05:52:45;;;;;;;;;;;;;;;2.51;100.00;101690.84;5422273;26;20003;-73
2024/04/21 05:55:13;;;;;;;5.00;1.47;;;;;;;2.62;100.00;101699.78;5397376;26;19961;-74
2024/04/21 05:57:38;;;;;;;7.72;1.52;;;;;;;2.86;100.00;101703.09;5417852;26;20577;-74
2024/04/21 06:00:07;;;;;;;;;;;;;;;3.03;100.00;101708.84;5402445;26;20011;-73
2024/04/21 06:02:33;;;;;;;3.88;1.58;;;;;;;3.26;100.00;101719.41;5412741;26;19937;-73
2024/04/21 06:04:58;;;;;;;;;;;;;;;3.67;100.00;101724.91;5422759;26;20006;-74
2024/04/21 06:07:26;;;;;;;4.97;1.77;;;;;;;4.11;100.00;101733.59;5439397;26;19924;-74
2024/04/21 06:09:52;;;;;;;6.10;1.75;;;;;;;4.37;100.00;101747.31;5420373;26;20212;-74
2024/04/21 06:12:17;;;;;;;;;;;;;;;4.70;100.00;101748.00;5396417;26;20008;-76
2024/04/21 06:14:42;;;;;;;3.33;1.60;;;;;;;5.32;100.00;101763.81;5403985;26;19925;-75
2024/04/21 06:17:08;;;;;;;;;;;;;;;5.48;100.00;101762.41;5415881;26;20545;-75
2024/04/21 06:19:33;;;;;;;5.07;1.60;;;;;;;5.96;99.46;101778.56;5445159;26;19937;-75
2024/04/21 06:21:59;;;;;;;;;;;;;;;6.10;93.80;101780.78;5440707;26;20022;-73
2024/04/21 06:24:24;;;;;;;5.87;1.63;;;;;;;5.56;97.64;101781.25;5432304;26;20368;-77
2024/04/21 06:26:52;;;;;;;7.10;1.70;;;;;;;5.09;98.92;101768.56;5417935;26;20031;-76
2024/04/21 06:29:17;;;;;;;7.70;1.60;;;;;;;4.98;98.33;101774.88;5426214;26;20035;-74
2024/04/21 06:31:43;;;;;;;;;;;;;;;4.80;100.00;101779.16;5443638;26;20757;-74
2024/04/21 06:34:09;;;;;;;4.28;1.65;;;;;;;5.58;99.66;101781.09;5442884;26;19995;-74
2024/04/21 06:36:34;;;;;;;6.32;1.83;;;;;;;6.18;97.05;101785.41;5443495;26;20027;-76
2024/04/21 06:39:00;;;;;;;7.07;1.70;;;;;;;6.90;89.17;101790.19;5436277;26;20004;-74
2024/04/21 06:41:28;;;;;;;;;;;;;;;7.10;nan;101797.13;5443419;26;19998;-74
2024/04/21 06:43:54;;;;;;;6.40;1.80;;;;;;;7.13;86.20;101810.22;5435041;26;20004;-74
2024/04/21 06:46:19;;;;;;;6.95;2.00;;;;;;;6.52;86.84;101801.78;5441605;26;20488;-73
2024/04/21 06:48:45;;;;;;;4.97;1.67;;;;;;;5.95;90.46;101817.78;5437725;26;19995;-73
2024/04/21 06:51:10;;;;;;;10.85;2.20;;;;;;;5.46;94.36;101817.81;5405428;26;20010;-73
2024/04/21 06:53:36;;;;;;;8.93;2.25;;;;;;;5.23;97.05;101823.38;5413973;26;20002;-73
2024/04/21 06:56:01;;;;;;;10.23;2.13;;;;;;;4.99;97.99;101826.44;5439523;26;20042;-73
2024/04/21 06:58:26;;;;;;;;;;;;;;;4.65;98.88;101822.22;5441357;26;20003;-73
2024/04/21 07:00:54;;;;;;;5.63;2.13;;;;;;;4.60;100.00;101832.44;5433186;26;19972;-73
2024/04/21 07:03:22;;;;;;;10.18;2.10;;;;;;;4.42;100.00;101828.69;5441044;26;20455;-73
2024/04/21 07:05:48;;;;;;;6.53;2.35;;;;;;;4.25;100.00;101836.31;5431046;26;20010;-74
2024/04/21 07:08:14;;;;;;;;;;;;;;;4.27;100.00;101834.38;5448527;26;20003;-74
2024/04/21 07:10:40;;;;;;;10.23;2.15;;;;;;;4.19;100.00;101834.19;5444309;26;19931;-75
2024/04/21 07:13:06;;;;;;;5.82;2.20;;;;;;;4.48;100.00;101838.84;5409234;26;20076;-78
2024/04/21 07:15:31;;;;;;;;;;;;;;;4.53;100.00;101837.47;5436744;26;19999;-73
2024/04/21 07:17:57;;;;;;;5.47;2.07;;;;;;;4.75;100.00;101838.28;5409290;26;19952;-74
2024/04/21 07:20:22;;;;;;;;;;;;;;;5.37;99.46;101850.66;5440228;26;20454;-72
2024/04/21 07:22:47;;;;;;;7.13;2.07;;;;;;;5.50;97.12;101856.59;5438809;26;19930;-73
2024/04/21 07:25:14;;;;;;;;;;;;;;;5.26;97.08;101859.63;5399969;26;20006;-73
2024/04/21 07:27:43;;;;;;;8.47;2.20;;;;;;;5.01;96.08;101862.66;5430473;26;20421;-73
2024/04/21 07:30:08;;;;;;;5.30;2.33;;;;;;;4.58;98.13;101862.91;5431919;26;20232;-73
2024/04/21 07:32:34;;;;;;;;;;;;;;;4.44;100.00;101870.25;5439149;26;20003;-74
2024/04/21 07:34:59;;;;;;;7.30;3.13;;;;;;;4.28;99.07;101864.56;5439984;26;19943;-75
2024/04/21 07:37:24;;;;;;;;;;;;;;;4.36;100.00;101870.94;5433793;26;19995;-74
2024/04/21 07:39:50;;;;;;;7.03;3.17;;;;;;;4.69;100.00;101877.00;5415525;26;20277;-73
2024/04/21 07:42:15;;;;;;;;;;;;;;;4.85;99.23;101889.00;5416090;26;20408;-72
2024/04/21 07:44:45;;;;;;;8.50;3.33;;;;;;;4.87;99.24;101892.38;5405995;26;19925;-73
2024/04/21 07:47:10;;;;;;;8.15;2.70;;;;;;;4.98;94.83;101894.94;5400601;26;20225;-74
2024/04/21 07:49:36;;;;;;;;;;;;;;;4.75;96.51;101904.13;5407557;26;20039;-74
2024/04/21 07:52:04;;;;;;;8.90;3.30;;;;;;;4.98;97.10;101902.13;5397563;26;19925;-75
2024/04/21 07:54:29;;;;;;;7.85;3.72;;;;;;;5.55;96.61;101907.78;5394458;26;20348;-73
2024/04/21 07:56:54;;;;;;;;;;;;;;;6.61;93.42;101920.47;5391102;26;20068;-72
2024/04/21 07:59:20;;;;;;;6.20;3.00;;;;;;;7.63;82.75;101919.75;5379825;26;20396;-73
2024/04/21 08:01:49;;;;;;;6.05;2.88;;;;;;;8.27;78.52;101923.19;5400566;26;20343;-74
2024/04/21 08:04:14;;;;;;;6.80;3.17;;;;;;;7.95;76.08;101918.38;5405987;26;20382;-73
2024/04/21 08:06:40;;;;;;;5.68;2.80;;;;;;;7.84;79.34;101919.44;5398477;26;20081;-74
2024/04/21 08:09:05;;;;;;;5.35;2.80;;;;;;;8.15;74.38;101924.41;5403090;26;20047;-74
2024/04/21 08:11:30;;;;;;;7.60;2.80;;;;;;;8.32;73.85;101926.25;5426930;26;20083;-74
2024/04/21 08:13:57;;;;;;;7.18;3.05;;;;;;;8.15;71.11;101924.41;5419091;26;20018;-74
2024/04/21 08:16:22;;;;;;;7.93;3.30;;;;;;;7.70;72.96;101937.75;5408888;26;20000;-74
2024/04/21 08:18:47;;;;;;;5.63;3.35;;;;;;;6.86;77.48;101933.34;5382046;26;20048;-74
2024/04/21 08:21:13;;;;;;;6.00;3.20;;;;;;;7.02;81.05;101944.28;5397803;26;20019;-73
2024/04/21 08:23:38;;;;;;;8.20;3.10;;;;;;;8.16;76.09;101932.31;5391694;26;20003;-74
2024/04/21 08:26:04;;;;;;;8.38;2.83;;;;;;;8.57;70.97;101936.34;5403510;26;20501;-74
2024/04/21 08:28:29;;;;;;;8.10;2.92;;;;;;;8.86;71.77;101943.25;5403475;26;20025;-75
2024/04/21 08:30:55;;;;;;;5.15;2.80;;;;;;;8.83;73.17;101949.78;5436630;26;20003;-73
2024/04/21 08:33:20;;;;;;;7.20;2.60;;;;;;;9.67;67.31;101951.84;5434367;26;19999;-73
2024/04/21 08:35:53;;;;;;;4.63;2.83;;;;;;;10.03;63.84;101956.97;5442686;26;19995;-74
2024/04/21 08:38:19;;;;;;;5.10;2.50;;;;;;;11.18;63.78;101960.59;5414066;26;20036;-73
2024/04/21 08:40:45;;;;;;;4.15;2.60;;;;;;;11.75;60.75;101962.16;5370986;26;20136;-73
2024/04/21 08:43:10;;;;;;;4.88;2.83;;;;;;;12.19;60.02;101968.81;5361741;26;20011;-73
2024/04/21 08:45:36;;;;;;;6.40;3.20;;;;;;;12.31;58.14;101971.94;5405266;26;20013;-72
2024/04/21 08:48:01;;;;;;;4.28;2.90;;;;;;;11.31;58.59;101977.03;5405437;26;20519;-74
2024/04/21 08:50:27;;;;;;;3.55;2.92;;;;;;;10.66;59.97;101984.25;5436024;26;20187;-74
2024/04/21 08:52:52;;;;;;;5.38;3.17;;;;;;;10.36;62.00;101983.03;5435030;26;20010;-74
2024/04/21 08:55:18;;;;;;;7.90;3.50;;;;;;;9.95;64.45;101987.38;5412744;26;19998;-74
2024/04/21 08:57:43;;;;;;;6.25;3.50;;;;;;;11.16;64.35;101986.84;5407899;26;20010;-73
2024/04/21 09:00:09;;;;;;;6.10;3.00;;;;;;;11.67;60.06;101995.44;5422379;26;20010;-74
2024/04/21 09:02:35;;;;;;;3.92;3.00;;;;;;;11.86;58.59;101995.19;5392162;26;25172;-73
2024/04/21 09:05:00;;;;;;;5.15;2.95;;;;;;;11.62;55.77;101994.28;5399086;26;21018;-73
2024/04/21 09:07:30;;;;;;;5.85;2.85;;;;;;;12.70;53.37;101997.13;5448727;26;20022;-74
2024/04/21 09:10:02;;;;;;;4.47;3.22;;;;;;;13.26;52.34;101999.44;5412689;26;20030;-74
2024/04/21 09:12:31;;;;;;;5.45;3.13;;;;;;;14.21;51.18;102002.22;5401150;26;20449;-74
2024/04/21 09:14:59;;;;;;;3.38;2.75;;;;;;;13.97;51.74;102013.44;5447780;26;20002;-73
2024/04/21 09:17:28;;;;;;;4.53;3.10;;;;;;;14.24;48.95;102017.28;5444946;26;20009;-73
2024/04/21 09:19:53;;;;;;;3.60;3.05;;;;;;;14.42;49.65;102026.81;5433649;26;20015;-73
2024/04/21 09:22:19;;;;;;;4.38;3.33;;;;;;;13.76;48.48;102024.03;5441604;26;20347;-73
2024/04/21 09:24:44;;;;;;;3.58;2.80;;;;;;;13.48;49.62;102021.19;5366181;26;20076;-73
2024/04/21 09:27:10;;;;;;;3.80;3.15;;;;;;;13.28;51.98;102031.69;5441717;26;20338;-74
2024/04/21 09:29:35;;;;;;;2.92;2.63;;;;;;;12.97;51.50;102025.41;5451079;26;20025;-73
2024/04/21 09:32:00;;;;;;;3.97;3.17;;;;;;;12.37;52.92;102027.09;5422388;26;20346;-73
2024/04/21 09:34:26;;;;;;;3.47;2.92;;;;;;;11.55;52.83;102022.97;5410886;26;23733;-74
2024/04/21 09:36:55;;;;;;;5.88;3.33;;;;;;;10.57;57.19;102021.13;5438817;26;20029;-74
2024/04/21 09:39:20;;;;;;;4.85;3.30;;;;;;;10.58;59.90;102019.28;5442254;26;20432;-73
2024/04/21 09:41:50;;;;;;;3.30;3.00;;;;;;;10.65;55.12;102014.91;5392215;26;19998;-73
2024/04/21 09:44:17;;;;;;;4.68;3.00;;;;;;;11.35;55.96;102021.50;5424757;26;20010;-73
2024/04/21 09:46:43;;;;;;;4.68;3.10;;;;;;;11.36;55.58;102023.19;5444063;26;20079;-73
2024/04/21 09:49:09;;;;;;;4.35;3.00;;;;;;;11.19;57.20;102018.88;5440085;26;20498;-73
2024/04/21 09:51:34;;;;;;;3.83;2.90;;;;;;;11.55;54.92;102015.72;5404770;26;20012;-73
2024/04/21 09:54:00;;;;;;;4.72;3.35;;;;;;;10.67;54.62;102018.25;5404991;26;20458;-73
2024/04/21 09:56:29;;;;;;;3.80;3.08;;;;;;;10.34;58.35;102023.59;5443197;26;20014;-73
2024/04/21 09:58:55;;;;;;;3.92;2.85;;;;;;;11.60;52.42;102034.91;5438838;26;20039;-73
2024/04/21 10:01:31;;;;;;;2.72;2.53;;;;;;;12.16;49.65;102023.22;5430093;26;19995;-73
2024/04/21 10:03:58;;;;;;;3.38;2.85;;;;;;;11.43;51.30;102017.94;5440352;26;20439;-73
2024/04/21 10:06:24;;;;;;;3.83;2.63;;;;;;;11.03;52.34;102039.44;5439391;26;20025;-73
2024/04/21 10:08:50;;;;;;;3.38;2.92;;;;;;;10.46;53.60;102038.44;5438611;26;19991;-73
2024/04/21 10:11:15;;;;;;;2.97;2.60;;;;;;;10.80;50.59;102038.44;5410066;26;20335;-73
2024/04/21 10:13:40;;;;;;;2.95;2.63;;;;;;;12.56;49.80;102037.41;5441239;26;20407;-73
2024/04/21 10:16:06;;;;;;;2.67;2.38;;;;;;;13.17;44.81;102035.69;5443044;26;20057;-73
2024/04/21 10:18:33;;;;;;;3.08;2.67;;;;;;;14.40;44.36;102045.97;5406428;26;20029;-73
2024/04/21 10:20:58;;;;;;;2.83;2.63;;;;;;;15.53;43.44;102055.22;5432987;26;19998;-73
2024/04/21 10:23:24;;;;;;;3.33;2.80;;;;;;;14.62;40.89;102044.13;5368848;26;20398;-74
2024/04/21 10:25:49;;;;;;;2.78;2.42;;;;;;;14.98;41.34;102047.75;5380355;26;19994;-73
2024/04/21 10:28:24;;;;;;;3.42;2.53;;;;;;;13.59;41.68;102046.94;5439538;26;20011;-73
2024/04/21 10:30:50;;;;;;;3.47;2.42;;;;;;;12.37;46.84;102041.44;5441003;26;19995;-74
2024/04/21 10:33:15;;;;;;;2.95;2.67;;;;;;;11.38;47.82;102041.91;5429665;26;19999;-73
2024/04/21 10:35:41;;;;;;;2.72;2.47;;;;;;;11.17;49.73;102039.75;5412391;26;20003;-74
2024/04/21 10:38:07;;;;;;;2.65;2.45;;;;;;;11.12;47.74;102042.13;5442666;26;20022;-74
2024/04/21 10:40:53;;;;;;;3.35;2.50;;;;;;;11.16;48.40;102043.47;5444053;26;20046;-74
2024/04/21 10:43:24;;;;;;;3.08;2.72;;;;;;;11.27;46.83;102044.97;5410628;26;22396;-74
2024/04/21 10:45:55;;;;;;;3.13;2.70;;;;;;;11.45;48.12;102044.75;5438281;26;20047;-74
2024/04/21 10:48:22;;;;;;;4.35;3.20;;;;;;;11.76;47.43;102041.25;5434677;26;20102;-75
2024/04/21 10:50:55;;;;;;;4.95;3.38;;;;;;;12.35;46.12;102037.25;5414602;26;20075;-74
2024/04/21 10:53:21;;;;;;;4.03;3.55;;;;;;;11.66;48.52;102045.00;5442130;26;19999;-74
2024/04/21 10:55:46;;;;;;;5.13;3.80;;;;;;;10.92;52.06;102034.41;5443036;26;20015;-75
2024/04/21 10:58:12;;;;;;;4.22;3.58;;;;;;;10.89;52.77;102032.06;5445449;26;20337;-73
2024/04/21 11:00:40;;;;;;;4.22;3.78;;;;;;;10.44;53.50;102040.47;5438604;26;20013;-72
2024/04/21 11:03:05;;;;;;;5.90;4.45;;;;;;;9.97;53.95;102032.94;5464103;26;20403;-73
2024/04/21 11:05:59;;;;;;;5.55;4.50;;;;;;;10.44;52.90;102034.25;5444897;26;20518;-73
2024/04/21 11:08:25;;;;;;;5.47;4.50;;;;;;;11.35;49.21;102029.59;5400963;26;20049;-73
2024/04/21 11:10:50;;;;;;;4.82;4.20;;;;;;;11.96;47.52;102037.13;5441961;26;20021;-73
2024/04/21 11:13:16;;;;;;;4.70;4.20;;;;;;;12.94;43.56;102041.16;5443015;26;20010;-73
2024/04/21 11:15:41;;;;;;;4.63;4.20;;;;;;;13.95;42.80;102032.56;5450357;26;20010;-73
2024/04/21 11:18:07;;;;;;;4.85;4.22;;;;;;;14.95;39.97;102040.88;5451132;26;20038;-73
2024/04/21 11:20:33;;;;;;;6.20;5.00;;;;;;;13.53;39.81;102034.97;5443944;26;20091;-73
2024/04/21 11:22:58;;;;;;;5.35;4.82;;;;;;;14.85;40.89;102040.34;5441927;26;19999;-73
2024/04/21 11:25:24;;;;;;;5.60;4.65;;;;;;;14.63;43.46;102036.81;5446366;26;20010;-73
2024/04/21 11:27:50;;;;;;;5.45;4.95;;;;;;;15.57;43.24;102045.63;5442463;26;20002;-74